Time;durP1;ratioP1;P1;durP2;ratioP2;P2;SDS_P1;SDS_P2;PMS_P1;PMS_P2;Temp;Humidity;BMP_temperature;BMP_pressure;BME280_temperature;BME280_humidity;BME280_pressure;Samples;Min_cycle;Max_cycle;Signal;HPM_P1;HPM_P2
2024/01/07 00:00:51;;;;;;;22.63;11.35;;;;;;;0.97;100.00;101578.91;5069065;28;20098;-70
2024/01/07 00:03:19;;;;;;;20.52;9.55;;;;;;;0.95;100.00;101582.31;5083598;28;20041;-70
2024/01/07 00:05:46;;;;;;;31.38;21.20;;;;;;;0.91;100.00;101591.75;5086629;28;20380;-70
2024/01/07 00:08:14;;;;;;;26.60;12.10;;;;;;;0.85;100.00;101582.13;5066192;28;20130;-69
2024/01/07 00:10:41;;;;;;;34.20;23.20;;;;;;;0.90;100.00;101584.81;5083128;28;20048;-70
2024/01/07 00:13:08;;;;;;;37.72;23.92;;;;;;;0.89;100.00;101585.66;5086190;28;20079;-70
2024/01/07 00:15:35;;;;;;;37.85;23.77;;;;;;;0.82;100.00;101592.44;5086720;28;20123;-70
2024/01/07 00:18:02;;;;;;;37.50;25.30;;;;;;;0.77;100.00;101596.63;5072368;28;20048;-70
2024/01/07 00:20:30;;;;;;;37.33;23.90;;;;;;;0.76;100.00;101597.50;5083952;28;20153;-70
2024/01/07 00:22:57;;;;;;;38.70;24.42;;;;;;;0.75;100.00;101599.19;5088906;28;20136;-70
2024/01/07 00:25:24;;;;;;;37.83;24.70;;;;;;;0.74;100.00;101599.19;5086216;28;20039;-70
2024/01/07 00:27:55;;;;;;;40.08;25.40;;;;;;;0.70;100.00;101597.34;5089287;28;20132;-70
2024/01/07 00:30:22;;;;;;;43.20;27.13;;;;;;;0.65;100.00;101593.78;5092795;28;20129;-70
2024/01/07 00:32:51;;;;;;;26.70;12.75;;;;;;;0.68;100.00;101601.63;5068114;28;20063;-70
2024/01/07 00:35:18;;;;;;;24.80;11.80;;;;;;;0.72;100.00;101611.22;5085217;28;20575;-70
2024/01/07 00:37:45;;;;;;;22.23;10.82;;;;;;;0.63;100.00;101605.84;5078611;28;20059;-70
2024/01/07 00:40:13;;;;;;;24.83;11.10;;;;;;;0.64;100.00;101615.38;5073927;28;20040;-70
2024/01/07 00:42:40;;;;;;;46.13;27.27;;;;;;;0.69;100.00;101614.66;5087365;28;20534;-71
2024/01/07 00:45:08;;;;;;;47.25;29.05;;;;;;;0.66;100.00;101618.91;5086746;28;20055;-70
2024/01/07 00:47:35;;;;;;;36.25;13.38;;;;;;;0.66;100.00;101611.09;5089752;28;20040;-70
2024/01/07 00:50:03;;;;;;;51.65;29.70;;;;;;;0.68;100.00;101619.78;5090880;28;20616;-70
2024/01/07 00:52:31;;;;;;;55.25;31.13;;;;;;;0.66;100.00;101622.34;5086232;28;20059;-70
2024/01/07 00:54:58;;;;;;;57.08;31.50;;;;;;;0.63;100.00;101614.47;5072013;28;20138;-69
2024/01/07 00:57:25;;;;;;;64.05;34.38;;;;;;;0.65;100.00;101623.19;5077601;28;20044;-70
2024/01/07 00:59:52;;;;;;;61.75;33.90;;;;;;;0.68;100.00;101625.88;5057760;28;20052;-70
2024/01/07 01:02:19;;;;;;;65.53;33.75;;;;;;;0.68;100.00;101631.06;5100016;28;20149;-70
2024/01/07 01:04:48;;;;;;;57.90;32.38;;;;;;;0.69;100.00;101624.13;5080584;28;20045;-70
2024/01/07 01:07:15;;;;;;;62.83;32.60;;;;;;;0.67;100.00;101628.41;5067547;28;20067;-70
2024/01/07 01:09:43;;;;;;;62.65;32.47;;;;;;;0.70;100.00;101626.78;5086072;28;20094;-69
2024/01/07 01:12:10;;;;;;;57.88;31.75;;;;;;;0.74;100.00;101630.31;5088295;28;20051;-69
2024/01/07 01:14:37;;;;;;;66.47;33.60;;;;;;;0.69;100.00;101627.63;5089314;28;20726;-70
2024/01/07 01:17:04;;;;;;;60.55;32.00;;;;;;;0.72;100.00;101640.66;5088562;28;20595;-70
2024/01/07 01:19:31;;;;;;;60.35;31.45;;;;;;;0.70;100.00;101644.97;5091399;28;20047;-70
2024/01/07 01:21:59;;;;;;;62.50;33.80;;;;;;;0.70;100.00;101652.75;5094583;28;20087;-69
2024/01/07 01:24:26;;;;;;;65.68;32.78;;;;;;;0.73;100.00;101651.94;5075747;28;20044;-70
2024/01/07 01:26:54;;;;;;;30.15;13.38;;;;;;;0.80;100.00;101650.34;5085173;28;20048;-70
2024/01/07 01:29:21;;;;;;;36.97;12.73;;;;;;;0.79;100.00;101649.47;5075642;28;20547;-72
2024/01/07 01:31:48;;;;;;;64.32;33.75;;;;;;;0.82;100.00;101656.44;5071462;28;20552;-71
2024/01/07 01:34:15;;;;;;;68.07;33.83;;;;;;;0.81;100.00;101660.75;5056691;28;20548;-69
2024/01/07 01:36:42;;;;;;;64.30;34.17;;;;;;;0.84;100.00;101672.94;5075405;28;20117;-71
2024/01/07 01:39:09;;;;;;;66.75;35.10;;;;;;;0.82;100.00;101667.72;5096203;28;20051;-71
2024/01/07 01:41:37;;;;;;;63.65;33.67;;;;;;;0.83;100.00;101672.06;5070594;28;20040;-71
2024/01/07 01:44:04;;;;;;;63.65;32.63;;;;;;;0.84;100.00;101678.13;5071624;28;20623;-71
2024/01/07 01:46:32;;;;;;;38.78;14.95;;;;;;;0.86;100.00;101684.25;5069000;28;20090;-72
2024/01/07 01:49:00;;;;;;;52.17;30.13;;;;;;;0.88;100.00;101682.56;5069380;28;20099;-69
2024/01/07 01:51:27;;;;;;;47.95;27.77;;;;;;;0.91;100.00;101685.25;5072653;28;20108;-69
2024/01/07 01:53:57;;;;;;;51.17;27.58;;;;;;;0.91;100.00;101686.09;5083447;28;20483;-70
2024/01/07 01:56:27;;;;;;;46.08;26.08;;;;;;;0.93;100.00;101684.41;5097239;28;20075;-71
2024/01/07 01:58:55;;;;;;;28.20;13.05;;;;;;;0.88;100.00;101685.16;5085788;28;20048;-71
2024/01/07 02:01:26;;;;;;;39.25;24.45;;;;;;;0.86;100.00;101689.44;5067145;28;20044;-69
2024/01/07 02:03:54;;;;;;;41.42;25.20;;;;;;;0.89;100.00;101694.69;5084093;28;20130;-69
2024/01/07 02:06:22;;;;;;;38.60;23.10;;;;;;;0.88;100.00;101693.81;5069246;28;20140;-69
2024/01/07 02:08:50;;;;;;;38.42;24.25;;;;;;;0.89;100.00;101689.50;5067563;28;20484;-69
2024/01/07 02:11:20;;;;;;;33.47;22.48;;;;;;;0.89;100.00;101698.16;5078358;28;20075;-69
2024/01/07 02:13:48;;;;;;;33.28;22.02;;;;;;;0.92;100.00;101706.03;5056177;28;20056;-69
2024/01/07 02:16:15;;;;;;;37.22;23.48;;;;;;;0.90;100.00;101699.91;5069247;28;20067;-69
2024/01/07 02:18:45;;;;;;;35.03;22.23;;;;;;;0.87;100.00;101701.56;5069192;28;20248;-69
2024/01/07 02:21:15;;;;;;;35.95;22.48;;;;;;;0.81;100.00;101706.63;5063224;28;20040;-69
2024/01/07 02:23:42;;;;;;;17.13;8.38;;;;;;;0.70;100.00;101696.88;5083964;28;20067;-70
2024/01/07 02:26:09;;;;;;;15.65;8.38;;;;;;;0.65;100.00;101706.25;5078743;28;20120;-69
2024/01/07 02:28:36;;;;;;;22.88;10.25;;;;;;;0.58;100.00;101710.41;5085058;28;20492;-70
2024/01/07 02:31:03;;;;;;;35.38;22.90;;;;;;;0.56;100.00;101711.22;5070578;28;20101;-70
2024/01/07 02:33:31;;;;;;;33.90;21.95;;;;;;;0.57;100.00;101711.25;5079828;28;20052;-69
2024/01/07 02:35:58;;;;;;;31.73;20.65;;;;;;;0.56;100.00;101712.06;5074720;28;20037;-69
2024/01/07 02:38:25;;;;;;;32.60;21.70;;;;;;;0.56;100.00;101713.81;5075613;28;20718;-70
2024/01/07 02:40:52;;;;;;;34.38;22.83;;;;;;;0.56;100.00;101719.84;5083299;28;20040;-72
2024/01/07 02:43:20;;;;;;;33.60;22.35;;;;;;;0.54;100.00;101723.25;5089651;28;20542;-70
2024/01/07 02:45:47;;;;;;;24.00;11.57;;;;;;;0.52;100.00;101723.22;5079076;28;20123;-70
2024/01/07 02:48:14;;;;;;;14.73;6.47;;;;;;;0.51;100.00;101725.81;5080514;28;20661;-71
2024/01/07 02:50:41;;;;;;;30.98;20.10;;;;;;;0.51;100.00;101725.81;5079844;28;20127;-71
2024/01/07 02:53:10;;;;;;;33.67;20.35;;;;;;;0.50;100.00;101729.22;5093474;28;20040;-71
2024/01/07 02:55:37;;;;;;;31.50;20.40;;;;;;;0.53;100.00;101735.38;5059630;28;20040;-71
2024/01/07 02:58:04;;;;;;;30.60;20.77;;;;;;;0.51;100.00;101728.41;5081859;28;20041;-71
2024/01/07 03:00:31;;;;;;;19.60;8.50;;;;;;;0.51;100.00;101734.44;5072742;28;20044;-71
2024/01/07 03:02:59;;;;;;;10.95;6.45;;;;;;;0.50;100.00;101724.91;5094269;28;20098;-71
2024/01/07 03:05:29;;;;;;;14.77;8.13;;;;;;;0.50;100.00;101734.41;5083978;28;20541;-70
2024/01/07 03:07:56;;;;;;;30.92;19.73;;;;;;;0.48;100.00;101736.97;5072714;28;20048;-71
2024/01/07 03:10:23;;;;;;;34.33;20.98;;;;;;;0.52;100.00;101732.72;5097734;28;20041;-70
2024/01/07 03:12:50;;;;;;;33.13;20.63;;;;;;;0.49;100.00;101746.50;5086307;28;20044;-71
2024/01/07 03:15:17;;;;;;;27.48;19.65;;;;;;;0.51;100.00;101739.63;5073511;28;20047;-70
2024/01/07 03:17:44;;;;;;;29.67;19.67;;;;;;;0.54;100.00;101738.84;5085913;28;20120;-70
2024/01/07 03:20:12;;;;;;;16.25;8.32;;;;;;;0.51;100.00;101743.97;5086080;28;20424;-70
2024/01/07 03:22:39;;;;;;;12.35;6.57;;;;;;;0.49;100.00;101750.81;5083848;28;20036;-70
2024/01/07 03:25:07;;;;;;;18.30;8.48;;;;;;;0.47;100.00;101745.56;5074320;28;20045;-70
2024/01/07 03:27:34;;;;;;;20.58;14.85;;;;;;;0.55;100.00;101750.97;5072788;28;20044;-70
2024/01/07 03:30:02;;;;;;;22.17;15.13;;;;;;;0.58;100.00;101751.06;5083922;28;20613;-70
2024/01/07 03:32:29;;;;;;;19.02;14.40;;;;;;;0.57;100.00;101757.94;5072123;28;20577;-70
2024/01/07 03:34:56;;;;;;;19.30;13.82;;;;;;;0.57;100.00;101763.13;5086737;28;20088;-70
2024/01/07 03:37:23;;;;;;;22.05;15.02;;;;;;;0.60;100.00;101758.03;5067428;28;20570;-70
2024/01/07 03:39:50;;;;;;;12.02;6.63;;;;;;;0.58;100.00;101766.63;5099038;28;20068;-70
2024/01/07 03:42:19;;;;;;;13.07;6.88;;;;;;;0.58;100.00;101764.03;5083639;28;20038;-71
2024/01/07 03:44:46;;;;;;;16.55;8.55;;;;;;;0.59;100.00;101773.59;5078489;28;20075;-70
2024/01/07 03:47:13;;;;;;;14.00;7.85;;;;;;;0.53;100.00;101774.28;5079657;28;20123;-70
2024/01/07 03:49:41;;;;;;;20.65;14.75;;;;;;;0.52;100.00;101772.53;5068215;28;20500;-70
2024/01/07 03:52:08;;;;;;;11.57;6.57;;;;;;;0.50;100.00;101769.03;5079973;28;20459;-70
2024/01/07 03:54:35;;;;;;;17.52;13.82;;;;;;;0.46;100.00;101764.56;5083138;28;20043;-70
2024/01/07 03:57:03;;;;;;;9.55;5.30;;;;;;;0.43;100.00;101769.72;5072372;28;20052;-70
2024/01/07 03:59:30;;;;;;;16.73;6.80;;;;;;;0.43;100.00;101775.75;5081392;28;20060;-70
2024/01/07 04:01:57;;;;;;;17.27;13.45;;;;;;;0.44;100.00;101774.06;5087330;28;20192;-71
2024/01/07 04:04:25;;;;;;;17.05;13.63;;;;;;;0.46;100.00;101777.53;5068620;28;20044;-71
2024/01/07 04:06:52;;;;;;;15.88;12.85;;;;;;;0.49;100.00;101779.38;5083528;28;20059;-71
2024/01/07 04:09:20;;;;;;;18.05;13.55;;;;;;;0.48;100.00;101781.06;5073680;28;20040;-71
2024/01/07 04:11:47;;;;;;;15.90;7.32;;;;;;;0.49;100.00;101797.53;5075030;28;20040;-71
2024/01/07 04:14:15;;;;;;;15.48;12.52;;;;;;;0.53;100.00;101794.16;5061044;28;20064;-71
2024/01/07 04:16:42;;;;;;;16.42;12.65;;;;;;;0.53;100.00;101792.47;5092003;28;20582;-71
2024/01/07 04:19:10;;;;;;;12.55;6.78;;;;;;;0.54;100.00;101793.31;5081383;28;20067;-71
2024/01/07 04:21:37;;;;;;;15.77;11.60;;;;;;;0.49;100.00;101797.53;5081753;28;20127;-70
2024/01/07 04:24:04;;;;;;;15.95;12.00;;;;;;;0.51;100.00;101794.13;5081178;28;20683;-71
2024/01/07 04:26:31;;;;;;;11.18;6.25;;;;;;;0.55;100.00;101808.06;5078886;28;20111;-71
2024/01/07 04:28:58;;;;;;;9.73;5.75;;;;;;;0.51;100.00;101809.69;5078978;28;20044;-71
2024/01/07 04:31:25;;;;;;;14.02;11.35;;;;;;;0.52;100.00;101805.38;5074840;28;20036;-71
2024/01/07 04:33:53;;;;;;;14.55;11.40;;;;;;;0.51;100.00;101806.25;5081555;28;20053;-70
2024/01/07 04:36:20;;;;;;;8.13;5.22;;;;;;;0.50;100.00;101807.94;5082922;28;20504;-71
2024/01/07 04:38:47;;;;;;;16.40;11.95;;;;;;;0.49;100.00;101819.16;5076265;28;20146;-71
2024/01/07 04:41:14;;;;;;;16.40;12.65;;;;;;;0.51;100.00;101821.81;5077055;28;20453;-71
2024/01/07 04:43:43;;;;;;;11.15;6.47;;;;;;;0.49;100.00;101820.88;5077270;28;20036;-72
2024/01/07 04:46:11;;;;;;;13.77;6.28;;;;;;;0.49;100.00;101823.47;5087376;28;20094;-70
2024/01/07 04:48:39;;;;;;;12.00;6.68;;;;;;;0.47;100.00;101823.41;5081401;28;20055;-70
2024/01/07 04:51:08;;;;;;;16.48;12.90;;;;;;;0.50;100.00;101830.44;5077165;28;20044;-70
2024/01/07 04:53:36;;;;;;;10.27;6.00;;;;;;;0.56;100.00;101836.63;5087326;28;20139;-70
2024/01/07 04:56:03;;;;;;;11.02;5.65;;;;;;;0.52;100.00;101827.03;5092742;28;20129;-70
2024/01/07 04:58:31;;;;;;;7.75;4.63;;;;;;;0.54;100.00;101837.44;5081461;28;20049;-70
2024/01/07 05:00:58;;;;;;;10.23;5.95;;;;;;;0.50;100.00;101841.69;5098905;28;20044;-71
2024/01/07 05:03:25;;;;;;;15.18;11.70;;;;;;;0.51;100.00;101848.63;5074597;28;20119;-71
2024/01/07 05:05:52;;;;;;;10.95;5.65;;;;;;;0.53;100.00;101843.47;5077235;28;20041;-71
2024/01/07 05:08:19;;;;;;;9.27;6.13;;;;;;;0.50;100.00;101833.88;5075916;28;20048;-71
2024/01/07 05:10:50;;;;;;;8.90;4.95;;;;;;;0.50;100.00;101843.41;5089361;28;20036;-70
2024/01/07 05:13:18;;;;;;;15.27;11.18;;;;;;;0.46;100.00;101843.31;5073092;28;20076;-71
2024/01/07 05:15:46;;;;;;;13.98;10.88;;;;;;;0.49;100.00;101850.28;5080226;28;20130;-71
2024/01/07 05:18:13;;;;;;;9.98;6.30;;;;;;;0.48;100.00;101852.84;5085931;28;20051;-71
2024/01/07 05:20:45;;;;;;;13.68;11.15;;;;;;;0.45;100.00;101851.94;5097378;28;20036;-70
2024/01/07 05:23:15;;;;;;;14.10;11.25;;;;;;;0.43;100.00;101850.13;5074261;28;20044;-70
2024/01/07 05:25:44;;;;;;;15.50;11.68;;;;;;;0.45;100.00;101858.84;5088222;28;20051;-70
2024/01/07 05:28:12;;;;;;;11.63;6.38;;;;;;;0.44;100.00;101862.28;5076401;28;20401;-71
2024/01/07 05:30:43;;;;;;;9.75;5.05;;;;;;;0.38;100.00;101873.34;5068557;28;20043;-71
2024/01/07 05:33:11;;;;;;;13.68;11.82;;;;;;;0.39;100.00;101875.13;5071129;28;20075;-71
2024/01/07 05:35:38;;;;;;;13.35;10.70;;;;;;;0.41;100.00;101885.53;5070443;28;20055;-71
2024/01/07 05:38:05;;;;;;;8.80;5.03;;;;;;;0.42;100.00;101879.50;5081169;28;20040;-71
2024/01/07 05:40:32;;;;;;;9.10;5.70;;;;;;;0.38;100.00;101888.03;5074640;28;20052;-71
2024/01/07 05:42:59;;;;;;;11.20;5.93;;;;;;;0.37;100.00;101894.06;5075487;28;20043;-71
2024/01/07 05:45:27;;;;;;;9.85;6.30;;;;;;;0.44;100.00;101896.88;5087585;28;20047;-71
2024/01/07 05:47:54;;;;;;;10.80;6.05;;;;;;;0.40;100.00;101896.75;5090333;28;20267;-71
2024/01/07 05:50:21;;;;;;;13.82;11.07;;;;;;;0.37;100.00;101892.34;5079978;28;20048;-71
2024/01/07 05:52:48;;;;;;;14.30;10.68;;;;;;;0.45;100.00;101896.03;5083177;28;20386;-69
2024/01/07 05:55:15;;;;;;;15.70;12.35;;;;;;;0.41;100.00;101901.97;5069442;28;20072;-69
2024/01/07 05:57:43;;;;;;;14.73;11.32;;;;;;;0.41;100.00;101904.56;5080516;28;20055;-70
2024/01/07 06:00:12;;;;;;;9.57;4.80;;;;;;;0.36;100.00;101902.66;5073336;28;20055;-70
2024/01/07 06:02:39;;;;;;;11.13;6.75;;;;;;;0.34;100.00;101906.97;5079943;28;20031;-71
2024/01/07 06:05:07;;;;;;;8.80;4.90;;;;;;;0.32;100.00;101906.88;5077436;28;20095;-71
2024/01/07 06:07:34;;;;;;;7.05;4.60;;;;;;;0.29;100.00;101915.47;5070152;28;20048;-71
2024/01/07 06:10:02;;;;;;;7.82;4.65;;;;;;;0.33;100.00;101918.16;5071971;28;20662;-71
2024/01/07 06:12:29;;;;;;;8.07;4.45;;;;;;;0.33;100.00;101923.34;5089796;28;20892;-71
2024/01/07 06:14:56;;;;;;;14.20;11.27;;;;;;;0.31;100.00;101925.88;5073522;28;20115;-71
2024/01/07 06:17:23;;;;;;;14.02;11.55;;;;;;;0.34;100.00;101925.13;5075547;28;20100;-71
2024/01/07 06:19:50;;;;;;;14.70;11.35;;;;;;;0.35;100.00;101930.34;5074011;28;20648;-71
2024/01/07 06:22:18;;;;;;;14.50;11.38;;;;;;;0.34;100.00;101931.16;5074351;28;20032;-72
2024/01/07 06:24:45;;;;;;;11.35;5.97;;;;;;;0.34;100.00;101936.34;5078521;28;20071;-71
2024/01/07 06:27:13;;;;;;;15.32;11.80;;;;;;;0.32;100.00;101939.75;5077415;28;20048;-71
2024/01/07 06:29:40;;;;;;;15.63;12.52;;;;;;;0.36;100.00;101947.66;5076912;28;20125;-70
2024/01/07 06:32:09;;;;;;;16.75;12.73;;;;;;;0.34;100.00;101945.88;5078785;28;20068;-71
2024/01/07 06:34:36;;;;;;;11.10;7.70;;;;;;;0.29;100.00;101956.09;5073539;28;20051;-71
2024/01/07 06:37:03;;;;;;;12.38;6.05;;;;;;;0.26;100.00;101959.47;5092169;28;20131;-70
2024/01/07 06:39:31;;;;;;;15.60;12.63;;;;;;;0.28;100.00;101975.97;5068779;28;20047;-70
2024/01/07 06:41:58;;;;;;;17.40;12.43;;;;;;;0.29;100.00;101972.53;5075359;28;20446;-70
2024/01/07 06:44:25;;;;;;;16.10;12.38;;;;;;;0.29;100.00;101972.53;5082436;28;20055;-70
2024/01/07 06:46:53;;;;;;;11.70;7.15;;;;;;;0.20;100.00;101982.63;5077966;28;20036;-70
2024/01/07 06:49:20;;;;;;;11.60;5.93;;;;;;;0.19;100.00;101986.06;5069091;28;20156;-69
2024/01/07 06:51:47;;;;;;;9.77;5.22;;;;;;;0.15;100.00;101990.28;5069107;28;20129;-69
2024/01/07 06:54:14;;;;;;;16.83;11.98;;;;;;;0.16;100.00;101998.94;5092336;28;20119;-70
2024/01/07 06:56:42;;;;;;;11.20;5.82;;;;;;;0.18;100.00;102004.19;5084677;28;20044;-69
2024/01/07 06:59:10;;;;;;;9.45;6.25;;;;;;;0.14;100.00;101995.44;5081642;28;20468;-69
2024/01/07 07:01:38;;;;;;;14.57;11.43;;;;;;;0.15;100.00;101999.78;5077651;28;20047;-68
2024/01/07 07:04:05;;;;;;;15.60;11.55;;;;;;;0.14;100.00;102008.41;5098812;28;20041;-69
2024/01/07 07:06:33;;;;;;;10.82;6.20;;;;;;;0.09;100.00;102004.75;5076172;28;20072;-69
2024/01/07 07:09:01;;;;;;;11.13;5.15;;;;;;;0.09;100.00;102008.25;5072818;28;20032;-69
2024/01/07 07:11:28;;;;;;;15.55;11.30;;;;;;;0.10;100.00;102010.00;5071888;28;20036;-70
2024/01/07 07:13:55;;;;;;;15.80;12.10;;;;;;;0.11;100.00;102016.94;5071822;28;20140;-69
2024/01/07 07:16:22;;;;;;;12.20;7.28;;;;;;;0.17;100.00;102026.63;5080774;28;20758;-69
2024/01/07 07:18:50;;;;;;;16.23;12.23;;;;;;;0.14;100.00;102027.41;5075622;28;20059;-70
2024/01/07 07:21:17;;;;;;;13.52;11.15;;;;;;;0.18;100.00;102030.13;5074232;28;20048;-69
2024/01/07 07:23:44;;;;;;;17.80;12.40;;;;;;;0.13;100.00;102040.34;5074690;28;20527;-70
2024/01/07 07:26:11;;;;;;;16.17;12.63;;;;;;;0.08;100.00;102045.38;5068197;28;20067;-70
2024/01/07 07:28:38;;;;;;;12.55;6.47;;;;;;;0.08;100.00;102044.50;5072113;28;20535;-70
2024/01/07 07:31:05;;;;;;;12.68;5.25;;;;;;;0.07;100.00;102051.41;5072223;28;20044;-69
2024/01/07 07:33:32;;;;;;;10.63;5.88;;;;;;;0.09;100.00;102056.63;5077349;28;20074;-70
2024/01/07 07:36:00;;;;;;;8.90;4.28;;;;;;;0.13;100.00;102050.72;5070754;28;20092;-69
2024/01/07 07:38:27;;;;;;;8.48;5.20;;;;;;;0.09;100.00;102061.81;5074706;28;20149;-69
2024/01/07 07:40:54;;;;;;;13.15;5.50;;;;;;;0.09;100.00;102057.53;5084364;28;20075;-71
2024/01/07 07:43:21;;;;;;;11.13;4.90;;;;;;;0.09;100.00;102070.50;5080106;28;20780;-70
2024/01/07 07:45:48;;;;;;;11.05;6.93;;;;;;;0.10;100.00;102071.34;5073246;28;20036;-70
2024/01/07 07:48:16;;;;;;;14.25;11.38;;;;;;;0.09;100.00;102077.38;5073874;28;20068;-70
2024/01/07 07:50:44;;;;;;;16.02;11.93;;;;;;;0.13;100.00;102077.53;5083167;28;20188;-71
2024/01/07 07:53:11;;;;;;;16.50;12.20;;;;;;;0.11;100.00;102080.91;5070723;28;20470;-70
2024/01/07 07:55:38;;;;;;;13.45;7.05;;;;;;;0.11;100.00;102078.31;5077850;28;20067;-71
2024/01/07 07:58:05;;;;;;;12.68;7.25;;;;;;;0.07;100.00;102089.41;5081281;28;20048;-70
2024/01/07 08:00:32;;;;;;;15.82;12.13;;;;;;;0.06;100.00;102098.00;5071047;28;20044;-69
2024/01/07 08:03:00;;;;;;;12.10;7.40;;;;;;;0.07;100.00;102094.59;5093555;28;20055;-69
2024/01/07 08:05:27;;;;;;;7.53;4.63;;;;;;;0.07;100.00;102097.19;5101254;28;20121;-70
2024/01/07 08:07:56;;;;;;;7.25;5.18;;;;;;;0.05;100.00;102101.47;5084210;28;20520;-70
2024/01/07 08:10:23;;;;;;;14.10;10.45;;;;;;;0.09;100.00;102112.00;5072919;28;20089;-69
2024/01/07 08:12:50;;;;;;;15.88;10.73;;;;;;;0.11;100.00;102105.13;5086641;28;20064;-69
2024/01/07 08:15:17;;;;;;;14.50;10.95;;;;;;;0.21;100.00;102106.31;5082893;28;20048;-69
2024/01/07 08:17:44;;;;;;;8.43;5.75;;;;;;;0.29;100.00;102107.44;5075522;28;20044;-71
2024/01/07 08:20:12;;;;;;;14.00;5.65;;;;;;;0.24;100.00;102109.00;5068859;28;20067;-69
2024/01/07 08:22:39;;;;;;;11.88;5.63;;;;;;;0.15;100.00;102119.09;5075785;28;20052;-69
2024/01/07 08:25:07;;;;;;;12.20;9.90;;;;;;;0.12;100.00;102127.63;5074735;28;20044;-69
2024/01/07 08:27:34;;;;;;;8.75;5.22;;;;;;;0.10;100.00;102128.41;5075662;28;20071;-66
2024/01/07 08:30:02;;;;;;;10.82;9.27;;;;;;;0.07;100.00;102129.19;5074172;28;20047;-67
2024/01/07 08:32:29;;;;;;;9.82;5.82;;;;;;;0.08;100.00;102145.63;5082619;28;20048;-67
2024/01/07 08:34:56;;;;;;;6.45;3.95;;;;;;;0.01;100.00;102138.47;5081574;28;20040;-70
2024/01/07 08:37:23;;;;;;;6.07;4.22;;;;;;;-0.03;100.00;102146.13;5092292;28;20052;-67
2024/01/07 08:39:51;;;;;;;10.52;8.88;;;;;;;0.02;100.00;102145.44;5078689;28;20539;-67
2024/01/07 08:42:18;;;;;;;11.15;8.60;;;;;;;0.02;100.00;102150.63;5087330;28;20040;-67
2024/01/07 08:44:45;;;;;;;6.50;4.55;;;;;;;0.04;100.00;102151.56;5071130;28;20048;-68
2024/01/07 08:47:12;;;;;;;10.70;8.50;;;;;;;0.05;100.00;102151.59;5071212;28;20045;-68
2024/01/07 08:49:40;;;;;;;10.85;8.80;;;;;;;0.06;100.00;102150.78;5073959;28;20040;-68
2024/01/07 08:52:07;;;;;;;5.97;3.80;;;;;;;0.01;100.00;102157.50;5071443;28;20131;-67
2024/01/07 08:54:34;;;;;;;8.20;4.97;;;;;;;0.04;100.00;102164.53;5069880;28;20051;-68
2024/01/07 08:57:02;;;;;;;7.85;5.05;;;;;;;0.05;100.00;102169.75;5072126;28;20101;-68
2024/01/07 08:59:29;;;;;;;10.80;8.82;;;;;;;0.03;100.00;102173.13;5078449;28;20123;-69
2024/01/07 09:01:56;;;;;;;10.63;8.85;;;;;;;0.01;100.00;102177.38;5083816;28;20487;-69
2024/01/07 09:04:23;;;;;;;9.75;8.63;;;;;;;0.02;100.00;102176.53;5096486;28;20054;-68
2024/01/07 09:06:51;;;;;;;9.68;8.65;;;;;;;0.01;100.00;102177.38;5073488;28;20048;-68
2024/01/07 09:09:18;;;;;;;10.60;9.40;;;;;;;-0.02;100.00;102175.56;5085722;28;20479;-69
2024/01/07 09:11:46;;;;;;;7.93;4.93;;;;;;;0.04;100.00;102187.88;5097023;28;20037;-68
2024/01/07 09:14:14;;;;;;;6.03;4.53;;;;;;;-0.01;100.00;102191.16;5073456;28;20539;-69
2024/01/07 09:16:42;;;;;;;7.28;4.90;;;;;;;0.01;100.00;102193.81;5075220;28;20037;-70
2024/01/07 09:19:09;;;;;;;9.18;5.38;;;;;;;-0.01;100.00;102198.06;5071249;28;20420;-70
2024/01/07 09:21:41;;;;;;;6.45;4.20;;;;;;;0.01;100.00;102201.56;5086959;28;20040;-70
2024/01/07 09:24:08;;;;;;;6.97;4.75;;;;;;;0.05;99.97;102205.19;5088720;28;20048;-69
2024/01/07 09:26:35;;;;;;;9.45;8.45;;;;;;;0.01;99.32;102208.50;5083677;28;20478;-70
2024/01/07 09:29:02;;;;;;;9.60;5.50;;;;;;;0.01;98.98;102222.31;5073532;28;20043;-70
2024/01/07 09:31:29;;;;;;;8.98;7.90;;;;;;;-0.03;98.86;102223.94;5072995;28;20124;-70
2024/01/07 09:33:57;;;;;;;7.72;5.28;;;;;;;-0.06;99.32;102213.47;5075409;28;20069;-70
2024/01/07 09:36:24;;;;;;;9.80;8.80;;;;;;;-0.06;100.00;102221.25;5080266;28;20128;-69
2024/01/07 09:38:56;;;;;;;10.35;8.25;;;;;;;-0.05;100.00;102232.50;5089527;28;20507;-70
2024/01/07 09:41:24;;;;;;;10.30;8.98;;;;;;;0.01;100.00;102226.66;5072629;28;20698;-70
2024/01/07 09:43:54;;;;;;;7.18;4.57;;;;;;;-0.02;100.00;102235.19;5077508;28;20056;-69
2024/01/07 09:46:22;;;;;;;5.85;4.25;;;;;;;-0.01;100.00;102239.56;5070102;28;20411;-68
2024/01/07 09:48:50;;;;;;;9.40;8.38;;;;;;;0.07;98.93;102245.00;5085753;28;20036;-70
2024/01/07 09:51:23;;;;;;;6.00;3.92;;;;;;;0.03;98.18;102238.81;5064658;28;20105;-65
2024/01/07 09:54:04;;;;;;;8.95;4.35;;;;;;;-0.01;98.74;102248.22;5070863;28;20036;-67
2024/01/07 09:56:51;;;;;;;12.95;4.78;;;;;;;-0.02;99.80;102243.84;5079441;28;20044;-69
2024/01/07 09:59:18;;;;;;;9.70;8.48;;;;;;;0.05;99.13;102251.88;5082308;28;20511;-69
2024/01/07 10:01:47;;;;;;;8.20;5.13;;;;;;;0.10;98.38;102256.38;5069045;28;20129;-69
2024/01/07 10:04:16;;;;;;;8.48;5.22;;;;;;;0.08;97.81;102260.63;5071269;28;20133;-70
2024/01/07 10:06:44;;;;;;;9.98;8.05;;;;;;;0.04;97.89;102263.06;5081564;28;20125;-69
2024/01/07 10:09:13;;;;;;;9.77;8.25;;;;;;;0.04;97.74;102266.53;5080104;28;20208;-70
2024/01/07 10:11:40;;;;;;;8.38;5.53;;;;;;;0.04;97.37;102266.53;5075524;28;20098;-70
2024/01/07 10:14:07;;;;;;;7.38;5.05;;;;;;;0.01;97.54;102271.59;5078909;28;20514;-70
2024/01/07 10:16:34;;;;;;;10.52;5.45;;;;;;;0.03;97.45;102262.16;5081291;28;20109;-70
2024/01/07 10:19:01;;;;;;;10.07;7.72;;;;;;;0.07;96.43;102264.06;5080857;28;20063;-70
2024/01/07 10:21:29;;;;;;;10.68;8.00;;;;;;;0.04;96.75;102271.72;5075478;28;20040;-70
2024/01/07 10:24:13;;;;;;;9.18;8.20;;;;;;;0.06;97.06;102270.06;5076545;28;20507;-70
2024/01/07 10:26:41;;;;;;;6.65;4.22;;;;;;;0.09;96.62;102277.97;5074101;28;20732;-70
2024/01/07 10:29:09;;;;;;;9.10;7.57;;;;;;;0.12;96.80;102280.66;5070005;28;20048;-70
2024/01/07 10:31:39;;;;;;;7.57;4.70;;;;;;;0.19;95.39;102279.16;5094385;28;20106;-70
2024/01/07 10:34:09;;;;;;;7.57;5.40;;;;;;;0.16;95.22;102281.63;5086681;28;20084;-70
2024/01/07 10:36:39;;;;;;;9.90;8.00;;;;;;;0.12;94.81;102279.78;5084483;28;20109;-70
2024/01/07 10:39:07;;;;;;;10.38;8.23;;;;;;;0.05;95.56;102293.38;5080390;28;20040;-70
2024/01/07 10:41:37;;;;;;;8.73;4.75;;;;;;;-0.01;96.30;102287.09;5079759;28;20056;-70
2024/01/07 10:44:05;;;;;;;9.30;8.02;;;;;;;0.00;96.24;102288.00;5077127;28;20047;-70
2024/01/07 10:46:33;;;;;;;11.32;8.25;;;;;;;0.01;95.48;102281.09;5072809;28;21232;-70
2024/01/07 10:49:14;;;;;;;11.13;8.82;;;;;;;0.01;95.49;102284.56;5064673;28;20483;-70
2024/01/07 10:51:43;;;;;;;9.15;4.28;;;;;;;-0.05;95.34;102286.94;5085359;28;20082;-70
2024/01/07 10:54:15;;;;;;;12.18;8.57;;;;;;;-0.02;95.65;102290.53;5071943;28;20425;-70
2024/01/07 10:56:50;;;;;;;9.40;5.45;;;;;;;0.03;95.44;102292.41;5068455;28;20106;-69
2024/01/07 10:59:19;;;;;;;7.40;4.00;;;;;;;0.08;94.93;102286.56;5074084;28;20473;-70
2024/01/07 11:01:46;;;;;;;9.95;7.65;;;;;;;0.17;94.33;102283.41;5082123;28;20043;-70
2024/01/07 11:04:21;;;;;;;6.22;3.92;;;;;;;0.13;94.46;102295.38;5071132;28;20040;-70
2024/01/07 11:06:59;;;;;;;11.57;7.88;;;;;;;0.23;94.18;102298.31;5069964;28;20076;-71
2024/01/07 11:09:49;;;;;;;9.23;7.40;;;;;;;0.33;93.09;102290.03;5072306;28;20044;-70
2024/01/07 11:12:17;;;;;;;8.60;7.07;;;;;;;0.37;92.94;102298.78;5068342;28;20071;-70
2024/01/07 11:14:47;;;;;;;9.07;7.20;;;;;;;0.39;92.91;102304.94;5071893;28;20040;-70
2024/01/07 11:17:14;;;;;;;6.85;5.97;;;;;;;0.45;92.22;102306.03;5074762;28;20071;-70
2024/01/07 11:19:51;;;;;;;6.88;6.13;;;;;;;0.47;91.08;102311.25;5079285;28;20431;-70